sensor_id;sensor_type;location;lat;lon;timestamp;temperature;humidity
15819;DHT22;8010;53.986;12.106;2024-02-21T00:00:04;8.10;99.90
15819;DHT22;8010;53.986;12.106;2024-02-21T00:02:30;8.10;99.90
15819;DHT22;8010;53.986;12.106;2024-02-21T00:04:56;8.10;99.90
15819;DHT22;8010;53.986;12.106;2024-02-21T00:07:21;8.10;99.90
15819;DHT22;8010;53.986;12.106;2024-02-21T00:09:47;8.10;99.90
15819;DHT22;8010;53.986;12.106;2024-02-21T00:12:12;8.10;99.90
15819;DHT22;8010;53.986;12.106;2024-02-21T00:14:39;8.10;99.90
15819;DHT22;8010;53.986;12.106;2024-02-21T00:17:05;8.10;99.90
15819;DHT22;8010;53.986;12.106;2024-02-21T00:19:31;8.10;99.90
15819;DHT22;8010;53.986;12.106;2024-02-21T00:21:56;8.10;99.90
15819;DHT22;8010;53.986;12.106;2024-02-21T00:24:22;8.10;99.90
15819;DHT22;8010;53.986;12.106;2024-02-21T00:26:47;8.10;99.90
15819;DHT22;8010;53.986;12.106;2024-02-21T00:29:13;8.10;99.90
15819;DHT22;8010;53.986;12.106;2024-02-21T00:31:38;8.10;99.90
15819;DHT22;8010;53.986;12.106;2024-02-21T00:34:04;8.10;99.90
15819;DHT22;8010;53.986;12.106;2024-02-21T00:36:29;8.10;99.90
15819;DHT22;8010;53.986;12.106;2024-02-21T00:38:55;8.10;99.90
15819;DHT22;8010;53.986;12.106;2024-02-21T00:41:20;8.20;99.90
15819;DHT22;8010;53.986;12.106;2024-02-21T00:43:46;8.10;99.90
15819;DHT22;8010;53.986;12.106;2024-02-21T00:46:13;8.10;99.90
15819;DHT22;8010;53.986;12.106;2024-02-21T00:48:39;8.20;99.90
15819;DHT22;8010;53.986;12.106;2024-02-21T00:51:05;8.10;99.90
15819;DHT22;8010;53.986;12.106;2024-02-21T00:53:30;8.20;99.90
15819;DHT22;8010;53.986;12.106;2024-02-21T00:55:56;8.20;99.90
15819;DHT22;8010;53.986;12.106;2024-02-21T00:58:22;8.20;99.90
15819;DHT22;8010;53.986;12.106;2024-02-21T01:00:47;8.10;99.90
15819;DHT22;8010;53.986;12.106;2024-02-21T01:03:13;8.20;99.90
15819;DHT22;8010;53.986;12.106;2024-02-21T01:05:38;8.20;99.90
15819;DHT22;8010;53.986;12.106;2024-02-21T01:08:04;8.20;99.90
15819;DHT22;8010;53.986;12.106;2024-02-21T01:10:30;8.20;99.90
15819;DHT22;8010;53.986;12.106;2024-02-21T01:12:55;8.20;99.90
15819;DHT22;8010;53.986;12.106;2024-02-21T01:15:21;8.20;99.90
15819;DHT22;8010;53.986;12.106;2024-02-21T01:17:47;8.20;99.90
15819;DHT22;8010;53.986;12.106;2024-02-21T01:20:12;8.20;99.90
15819;DHT22;8010;53.986;12.106;2024-02-21T01:22:38;8.20;99.90
15819;DHT22;8010;53.986;12.106;2024-02-21T01:25:04;8.20;99.90
15819;DHT22;8010;53.986;12.106;2024-02-21T01:27:29;8.30;99.90
15819;DHT22;8010;53.986;12.106;2024-02-21T01:29:55;8.30;99.90
15819;DHT22;8010;53.986;12.106;2024-02-21T01:32:21;8.30;99.90
15819;DHT22;8010;53.986;12.106;2024-02-21T01:34:49;8.30;99.90
15819;DHT22;8010;53.986;12.106;2024-02-21T01:37:15;8.30;99.90
15819;DHT22;8010;53.986;12.106;2024-02-21T01:39:40;8.30;99.90
15819;DHT22;8010;53.986;12.106;2024-02-21T01:42:06;8.30;99.90
15819;DHT22;8010;53.986;12.106;2024-02-21T01:44:32;8.30;99.90
15819;DHT22;8010;53.986;12.106;2024-02-21T01:46:57;8.30;99.90
15819;DHT22;8010;53.986;12.106;2024-02-21T01:49:23;8.40;99.90
15819;DHT22;8010;53.986;12.106;2024-02-21T01:51:49;8.40;99.90
15819;DHT22;8010;53.986;12.106;2024-02-21T01:54:16;8.30;99.90
15819;DHT22;8010;53.986;12.106;2024-02-21T01:56:43;8.40;99.90
15819;DHT22;8010;53.986;12.106;2024-02-21T01:59:09;8.40;99.90
15819;DHT22;8010;53.986;12.106;2024-02-21T02:01:35;8.40;99.90
15819;DHT22;8010;53.986;12.106;2024-02-21T02:04:01;8.40;99.90
15819;DHT22;8010;53.986;12.106;2024-02-21T02:06:27;8.40;99.90
15819;DHT22;8010;53.986;12.106;2024-02-21T02:08:53;8.40;99.90
15819;DHT22;8010;53.986;12.106;2024-02-21T02:11:19;8.40;99.90
15819;DHT22;8010;53.986;12.106;2024-02-21T02:13:45;8.40;99.90
15819;DHT22;8010;53.986;12.106;2024-02-21T02:16:11;8.50;99.90
15819;DHT22;8010;53.986;12.106;2024-02-21T02:18:36;8.50;99.90
15819;DHT22;8010;53.986;12.106;2024-02-21T02:21:04;8.50;99.90
15819;DHT22;8010;53.986;12.106;2024-02-21T02:23:32;8.50;99.90
15819;DHT22;8010;53.986;12.106;2024-02-21T02:25:58;8.50;99.90
15819;DHT22;8010;53.986;12.106;2024-02-21T02:28:24;8.50;99.90
15819;DHT22;8010;53.986;12.106;2024-02-21T02:30:50;8.50;99.90
15819;DHT22;8010;53.986;12.106;2024-02-21T02:33:16;8.50;99.90
15819;DHT22;8010;53.986;12.106;2024-02-21T02:35:45;8.50;99.90
15819;DHT22;8010;53.986;12.106;2024-02-21T02:38:10;8.50;99.90
15819;DHT22;8010;53.986;12.106;2024-02-21T02:40:38;8.50;99.90
15819;DHT22;8010;53.986;12.106;2024-02-21T02:43:04;8.50;99.90
15819;DHT22;8010;53.986;12.106;2024-02-21T02:45:29;8.50;99.90
15819;DHT22;8010;53.986;12.106;2024-02-21T02:47:56;8.50;99.90
15819;DHT22;8010;53.986;12.106;2024-02-21T02:50:23;8.50;99.90
15819;DHT22;8010;53.986;12.106;2024-02-21T02:52:48;8.50;99.90
15819;DHT22;8010;53.986;12.106;2024-02-21T02:55:14;8.50;99.90
15819;DHT22;8010;53.986;12.106;2024-02-21T02:57:40;8.50;99.90
15819;DHT22;8010;53.986;12.106;2024-02-21T03:00:08;8.50;99.90
15819;DHT22;8010;53.986;12.106;2024-02-21T03:02:35;8.50;99.90
15819;DHT22;8010;53.986;12.106;2024-02-21T03:05:00;8.50;99.90
15819;DHT22;8010;53.986;12.106;2024-02-21T03:07:26;8.60;99.90
15819;DHT22;8010;53.986;12.106;2024-02-21T03:09:51;8.50;99.90
15819;DHT22;8010;53.986;12.106;2024-02-21T03:12:18;8.50;99.90
15819;DHT22;8010;53.986;12.106;2024-02-21T03:14:50;8.50;99.90
15819;DHT22;8010;53.986;12.106;2024-02-21T03:17:16;8.50;99.90
15819;DHT22;8010;53.986;12.106;2024-02-21T03:19:41;8.50;99.90
15819;DHT22;8010;53.986;12.106;2024-02-21T03:22:07;8.50;99.90
15819;DHT22;8010;53.986;12.106;2024-02-21T03:24:33;8.50;99.90
15819;DHT22;8010;53.986;12.106;2024-02-21T03:26:58;8.50;99.90
15819;DHT22;8010;53.986;12.106;2024-02-21T03:29:24;8.50;99.90
15819;DHT22;8010;53.986;12.106;2024-02-21T03:31:50;8.50;99.90
15819;DHT22;8010;53.986;12.106;2024-02-21T03:34:15;8.50;99.90
15819;DHT22;8010;53.986;12.106;2024-02-21T03:36:41;8.50;99.90
15819;DHT22;8010;53.986;12.106;2024-02-21T03:39:06;8.50;99.90
15819;DHT22;8010;53.986;12.106;2024-02-21T03:41:34;8.60;99.90
15819;DHT22;8010;53.986;12.106;2024-02-21T03:44:00;8.60;99.90
15819;DHT22;8010;53.986;12.106;2024-02-21T03:46:25;8.60;99.90
15819;DHT22;8010;53.986;12.106;2024-02-21T03:48:51;8.60;99.90
15819;DHT22;8010;53.986;12.106;2024-02-21T03:51:16;8.60;99.90
15819;DHT22;8010;53.986;12.106;2024-02-21T03:53:42;8.60;99.90
15819;DHT22;8010;53.986;12.106;2024-02-21T03:56:08;8.60;99.90
15819;DHT22;8010;53.986;12.106;2024-02-21T03:58:34;8.60;99.90
15819;DHT22;8010;53.986;12.106;2024-02-21T04:01:02;8.60;99.90
15819;DHT22;8010;53.986;12.106;2024-02-21T04:03:29;8.60;99.90
15819;DHT22;8010;53.986;12.106;2024-02-21T04:05:54;8.60;99.90
15819;DHT22;8010;53.986;12.106;2024-02-21T04:08:20;8.60;99.90
15819;DHT22;8010;53.986;12.106;2024-02-21T04:10:45;8.60;99.90
15819;DHT22;8010;53.986;12.106;2024-02-21T04:13:12;8.70;99.90
15819;DHT22;8010;53.986;12.106;2024-02-21T04:15:37;8.70;99.90
15819;DHT22;8010;53.986;12.106;2024-02-21T04:18:03;8.70;99.90
15819;DHT22;8010;53.986;12.106;2024-02-21T04:20:29;8.70;99.90
15819;DHT22;8010;53.986;12.106;2024-02-21T04:22:55;8.70;99.90
15819;DHT22;8010;53.986;12.106;2024-02-21T04:25:20;8.70;99.90
15819;DHT22;8010;53.986;12.106;2024-02-21T04:27:46;8.80;99.90
15819;DHT22;8010;53.986;12.106;2024-02-21T04:30:12;8.80;99.90
15819;DHT22;8010;53.986;12.106;2024-02-21T04:32:38;8.80;99.90
15819;DHT22;8010;53.986;12.106;2024-02-21T04:35:04;8.80;99.90
15819;DHT22;8010;53.986;12.106;2024-02-21T04:37:29;8.80;99.90
15819;DHT22;8010;53.986;12.106;2024-02-21T04:39:56;8.80;99.90
15819;DHT22;8010;53.986;12.106;2024-02-21T04:42:21;8.90;99.90
15819;DHT22;8010;53.986;12.106;2024-02-21T04:44:47;8.90;99.90
15819;DHT22;8010;53.986;12.106;2024-02-21T04:47:12;8.90;99.90
15819;DHT22;8010;53.986;12.106;2024-02-21T04:49:38;8.90;99.90
15819;DHT22;8010;53.986;12.106;2024-02-21T04:52:04;8.90;99.90
15819;DHT22;8010;53.986;12.106;2024-02-21T04:54:30;8.90;99.90
15819;DHT22;8010;53.986;12.106;2024-02-21T04:56:55;8.90;99.90
15819;DHT22;8010;53.986;12.106;2024-02-21T04:59:21;8.80;99.90
15819;DHT22;8010;53.986;12.106;2024-02-21T05:01:46;8.90;99.90
15819;DHT22;8010;53.986;12.106;2024-02-21T05:04:12;8.80;99.90
15819;DHT22;8010;53.986;12.106;2024-02-21T05:06:38;8.90;99.90
15819;DHT22;8010;53.986;12.106;2024-02-21T05:09:04;8.90;99.90
15819;DHT22;8010;53.986;12.106;2024-02-21T05:11:30;8.90;99.90
15819;DHT22;8010;53.986;12.106;2024-02-21T05:13:56;8.90;99.90
15819;DHT22;8010;53.986;12.106;2024-02-21T05:16:21;8.80;99.90
15819;DHT22;8010;53.986;12.106;2024-02-21T05:18:47;8.80;99.90
15819;DHT22;8010;53.986;12.106;2024-02-21T05:21:13;8.80;99.90
15819;DHT22;8010;53.986;12.106;2024-02-21T05:23:38;8.80;99.90
15819;DHT22;8010;53.986;12.106;2024-02-21T05:26:05;8.80;99.90
15819;DHT22;8010;53.986;12.106;2024-02-21T05:28:31;8.80;99.90
15819;DHT22;8010;53.986;12.106;2024-02-21T05:30:56;8.80;99.90
15819;DHT22;8010;53.986;12.106;2024-02-21T05:33:22;8.80;99.90
15819;DHT22;8010;53.986;12.106;2024-02-21T05:35:48;8.80;99.90
15819;DHT22;8010;53.986;12.106;2024-02-21T05:38:16;8.80;99.90
15819;DHT22;8010;53.986;12.106;2024-02-21T05:40:42;8.80;99.90
15819;DHT22;8010;53.986;12.106;2024-02-21T05:43:08;8.80;99.90
15819;DHT22;8010;53.986;12.106;2024-02-21T05:45:34;8.70;99.90
15819;DHT22;8010;53.986;12.106;2024-02-21T05:47:59;8.80;99.90
15819;DHT22;8010;53.986;12.106;2024-02-21T05:50:25;8.70;99.90
15819;DHT22;8010;53.986;12.106;2024-02-21T05:52:52;8.70;99.90
15819;DHT22;8010;53.986;12.106;2024-02-21T05:55:18;8.70;99.90
15819;DHT22;8010;53.986;12.106;2024-02-21T05:57:43;8.70;99.90
15819;DHT22;8010;53.986;12.106;2024-02-21T06:00:09;8.70;99.90
15819;DHT22;8010;53.986;12.106;2024-02-21T06:02:35;8.70;99.90
15819;DHT22;8010;53.986;12.106;2024-02-21T06:05:01;8.70;99.90
15819;DHT22;8010;53.986;12.106;2024-02-21T06:07:26;8.70;99.90
15819;DHT22;8010;53.986;12.106;2024-02-21T06:09:52;8.80;99.90
15819;DHT22;8010;53.986;12.106;2024-02-21T06:12:18;8.70;99.90
15819;DHT22;8010;53.986;12.106;2024-02-21T06:14:43;8.70;99.90
15819;DHT22;8010;53.986;12.106;2024-02-21T06:17:09;8.70;99.90
15819;DHT22;8010;53.986;12.106;2024-02-21T06:19:34;8.70;99.90
15819;DHT22;8010;53.986;12.106;2024-02-21T06:22:00;8.70;99.90
15819;DHT22;8010;53.986;12.106;2024-02-21T06:24:25;8.70;99.90
15819;DHT22;8010;53.986;12.106;2024-02-21T06:26:51;8.70;99.90
15819;DHT22;8010;53.986;12.106;2024-02-21T06:29:16;8.70;99.90
15819;DHT22;8010;53.986;12.106;2024-02-21T06:31:42;8.70;99.90
15819;DHT22;8010;53.986;12.106;2024-02-21T06:34:07;8.70;99.90
15819;DHT22;8010;53.986;12.106;2024-02-21T06:36:33;8.60;99.90
15819;DHT22;8010;53.986;12.106;2024-02-21T06:38:59;8.50;99.90
15819;DHT22;8010;53.986;12.106;2024-02-21T06:41:24;8.50;99.90
15819;DHT22;8010;53.986;12.106;2024-02-21T06:43:50;8.40;99.90
15819;DHT22;8010;53.986;12.106;2024-02-21T06:46:26;8.40;99.90
15819;DHT22;8010;53.986;12.106;2024-02-21T06:48:53;8.40;99.90
15819;DHT22;8010;53.986;12.106;2024-02-21T06:51:19;8.40;99.90
15819;DHT22;8010;53.986;12.106;2024-02-21T06:53:44;8.40;99.90
15819;DHT22;8010;53.986;12.106;2024-02-21T06:56:10;8.50;99.90
15819;DHT22;8010;53.986;12.106;2024-02-21T06:58:36;8.50;99.90
15819;DHT22;8010;53.986;12.106;2024-02-21T07:01:02;8.50;99.90
15819;DHT22;8010;53.986;12.106;2024-02-21T07:03:27;8.40;99.90
15819;DHT22;8010;53.986;12.106;2024-02-21T07:05:53;8.50;99.90
15819;DHT22;8010;53.986;12.106;2024-02-21T07:08:18;8.40;99.90
15819;DHT22;8010;53.986;12.106;2024-02-21T07:10:44;8.40;99.90
15819;DHT22;8010;53.986;12.106;2024-02-21T07:13:09;8.40;99.90
15819;DHT22;8010;53.986;12.106;2024-02-21T07:15:35;8.40;99.90
15819;DHT22;8010;53.986;12.106;2024-02-21T07:18:01;8.40;99.90
15819;DHT22;8010;53.986;12.106;2024-02-21T07:20:27;8.40;99.90
15819;DHT22;8010;53.986;12.106;2024-02-21T07:22:52;8.40;99.90
15819;DHT22;8010;53.986;12.106;2024-02-21T07:25:18;8.40;99.90
15819;DHT22;8010;53.986;12.106;2024-02-21T07:27:44;8.40;99.90
15819;DHT22;8010;53.986;12.106;2024-02-21T07:30:10;8.40;99.90
15819;DHT22;8010;53.986;12.106;2024-02-21T07:32:36;8.40;99.90
15819;DHT22;8010;53.986;12.106;2024-02-21T07:35:01;8.30;99.90
15819;DHT22;8010;53.986;12.106;2024-02-21T07:37:27;8.30;99.90
15819;DHT22;8010;53.986;12.106;2024-02-21T07:39:52;8.30;99.90
15819;DHT22;8010;53.986;12.106;2024-02-21T07:42:18;8.30;99.90
15819;DHT22;8010;53.986;12.106;2024-02-21T07:44:43;8.20;99.90
15819;DHT22;8010;53.986;12.106;2024-02-21T07:47:09;8.20;99.90
15819;DHT22;8010;53.986;12.106;2024-02-21T07:49:44;8.20;99.90
15819;DHT22;8010;53.986;12.106;2024-02-21T07:52:10;8.20;99.90
15819;DHT22;8010;53.986;12.106;2024-02-21T07:54:35;8.30;99.90
15819;DHT22;8010;53.986;12.106;2024-02-21T07:57:01;8.40;99.90
15819;DHT22;8010;53.986;12.106;2024-02-21T07:59:26;8.40;99.90
15819;DHT22;8010;53.986;12.106;2024-02-21T08:01:52;8.40;99.90
15819;DHT22;8010;53.986;12.106;2024-02-21T08:04:21;8.40;99.90
15819;DHT22;8010;53.986;12.106;2024-02-21T08:06:51;8.50;99.90
15819;DHT22;8010;53.986;12.106;2024-02-21T08:09:18;8.50;99.90
15819;DHT22;8010;53.986;12.106;2024-02-21T08:11:44;8.60;99.90
15819;DHT22;8010;53.986;12.106;2024-02-21T08:14:09;8.70;99.90
15819;DHT22;8010;53.986;12.106;2024-02-21T08:16:35;8.80;99.90
15819;DHT22;8010;53.986;12.106;2024-02-21T08:19:00;8.90;99.90
15819;DHT22;8010;53.986;12.106;2024-02-21T08:21:28;9.00;99.90
15819;DHT22;8010;53.986;12.106;2024-02-21T08:23:54;9.00;99.90
15819;DHT22;8010;53.986;12.106;2024-02-21T08:26:20;9.00;99.90
15819;DHT22;8010;53.986;12.106;2024-02-21T08:28:45;9.00;99.90
15819;DHT22;8010;53.986;12.106;2024-02-21T08:31:10;9.10;99.90
15819;DHT22;8010;53.986;12.106;2024-02-21T08:33:36;9.20;99.90
15819;DHT22;8010;53.986;12.106;2024-02-21T08:36:02;9.30;99.90
15819;DHT22;8010;53.986;12.106;2024-02-21T08:38:28;9.40;99.90
15819;DHT22;8010;53.986;12.106;2024-02-21T08:40:54;9.40;99.90
15819;DHT22;8010;53.986;12.106;2024-02-21T08:43:19;9.40;99.90
15819;DHT22;8010;53.986;12.106;2024-02-21T08:45:45;9.30;99.90
15819;DHT22;8010;53.986;12.106;2024-02-21T08:48:10;9.40;99.90
15819;DHT22;8010;53.986;12.106;2024-02-21T08:50:36;9.40;99.90
15819;DHT22;8010;53.986;12.106;2024-02-21T08:53:01;9.40;99.90
15819;DHT22;8010;53.986;12.106;2024-02-21T08:55:27;9.50;99.90
15819;DHT22;8010;53.986;12.106;2024-02-21T08:57:52;9.50;99.90
15819;DHT22;8010;53.986;12.106;2024-02-21T09:00:18;9.50;99.90
15819;DHT22;8010;53.986;12.106;2024-02-21T09:02:46;9.40;99.90
15819;DHT22;8010;53.986;12.106;2024-02-21T09:05:12;9.40;99.90
15819;DHT22;8010;53.986;12.106;2024-02-21T09:07:37;9.40;99.90
15819;DHT22;8010;53.986;12.106;2024-02-21T09:10:03;9.40;99.90
15819;DHT22;8010;53.986;12.106;2024-02-21T09:12:29;9.40;99.90
15819;DHT22;8010;53.986;12.106;2024-02-21T09:14:54;9.40;99.90
15819;DHT22;8010;53.986;12.106;2024-02-21T09:17:20;9.50;99.90
15819;DHT22;8010;53.986;12.106;2024-02-21T09:19:47;9.60;99.90
15819;DHT22;8010;53.986;12.106;2024-02-21T09:22:13;9.60;99.90
15819;DHT22;8010;53.986;12.106;2024-02-21T09:24:38;9.60;99.90
15819;DHT22;8010;53.986;12.106;2024-02-21T09:27:04;9.60;99.90
15819;DHT22;8010;53.986;12.106;2024-02-21T09:29:31;9.70;99.90
15819;DHT22;8010;53.986;12.106;2024-02-21T09:31:58;9.70;99.90
15819;DHT22;8010;53.986;12.106;2024-02-21T09:34:24;9.80;99.90
15819;DHT22;8010;53.986;12.106;2024-02-21T09:36:49;9.90;99.90
15819;DHT22;8010;53.986;12.106;2024-02-21T09:39:15;10.00;99.90
15819;DHT22;8010;53.986;12.106;2024-02-21T09:41:50;10.20;99.90
15819;DHT22;8010;53.986;12.106;2024-02-21T09:44:18;10.30;99.90
15819;DHT22;8010;53.986;12.106;2024-02-21T09:47:04;10.40;99.90
15819;DHT22;8010;53.986;12.106;2024-02-21T09:49:34;10.50;99.90
15819;DHT22;8010;53.986;12.106;2024-02-21T09:52:04;10.60;99.90
15819;DHT22;8010;53.986;12.106;2024-02-21T09:54:33;10.60;99.90
15819;DHT22;8010;53.986;12.106;2024-02-21T09:57:00;10.70;99.90
15819;DHT22;8010;53.986;12.106;2024-02-21T09:59:27;10.80;99.90
15819;DHT22;8010;53.986;12.106;2024-02-21T10:01:53;10.80;99.90
15819;DHT22;8010;53.986;12.106;2024-02-21T10:04:20;10.90;99.90
15819;DHT22;8010;53.986;12.106;2024-02-21T10:06:46;10.90;99.90
15819;DHT22;8010;53.986;12.106;2024-02-21T10:09:25;11.00;99.90
15819;DHT22;8010;53.986;12.106;2024-02-21T10:11:53;11.10;99.90
15819;DHT22;8010;53.986;12.106;2024-02-21T10:14:19;11.30;99.90
15819;DHT22;8010;53.986;12.106;2024-02-21T10:16:48;11.50;99.90
15819;DHT22;8010;53.986;12.106;2024-02-21T10:19:20;11.60;99.90
15819;DHT22;8010;53.986;12.106;2024-02-21T10:22:06;11.70;99.90
15819;DHT22;8010;53.986;12.106;2024-02-21T10:24:33;11.90;99.90
15819;DHT22;8010;53.986;12.106;2024-02-21T10:27:06;12.10;99.90
15819;DHT22;8010;53.986;12.106;2024-02-21T10:29:36;12.40;99.90
15819;DHT22;8010;53.986;12.106;2024-02-21T10:32:13;12.50;99.90
15819;DHT22;8010;53.986;12.106;2024-02-21T10:34:39;12.50;99.90
15819;DHT22;8010;53.986;12.106;2024-02-21T10:37:07;12.50;99.90
15819;DHT22;8010;53.986;12.106;2024-02-21T10:39:33;12.50;99.90
15819;DHT22;8010;53.986;12.106;2024-02-21T10:42:01;12.40;99.90
15819;DHT22;8010;53.986;12.106;2024-02-21T10:44:32;12.30;99.90
15819;DHT22;8010;53.986;12.106;2024-02-21T10:46:58;12.20;99.90
15819;DHT22;8010;53.986;12.106;2024-02-21T10:49:26;12.10;99.90
15819;DHT22;8010;53.986;12.106;2024-02-21T10:57:05;11.70;99.90
15819;DHT22;8010;53.986;12.106;2024-02-21T10:59:32;11.60;99.90
15819;DHT22;8010;53.986;12.106;2024-02-21T11:01:58;11.50;99.90
15819;DHT22;8010;53.986;12.106;2024-02-21T11:04:24;11.40;99.90
15819;DHT22;8010;53.986;12.106;2024-02-21T11:06:51;11.30;99.90
15819;DHT22;8010;53.986;12.106;2024-02-21T11:09:17;11.50;99.90
15819;DHT22;8010;53.986;12.106;2024-02-21T11:11:43;11.80;99.90
15819;DHT22;8010;53.986;12.106;2024-02-21T11:14:20;11.90;99.90
15819;DHT22;8010;53.986;12.106;2024-02-21T11:16:47;11.90;99.90
15819;DHT22;8010;53.986;12.106;2024-02-21T11:19:20;11.70;99.90
15819;DHT22;8010;53.986;12.106;2024-02-21T11:21:47;11.50;99.90
15819;DHT22;8010;53.986;12.106;2024-02-21T11:24:32;11.30;99.90
15819;DHT22;8010;53.986;12.106;2024-02-21T11:27:21;11.20;99.90
15819;DHT22;8010;53.986;12.106;2024-02-21T11:29:48;11.20;99.90
15819;DHT22;8010;53.986;12.106;2024-02-21T11:32:17;11.50;99.90
15819;DHT22;8010;53.986;12.106;2024-02-21T11:35:03;12.00;99.90
15819;DHT22;8010;53.986;12.106;2024-02-21T11:37:31;12.50;99.90
15819;DHT22;8010;53.986;12.106;2024-02-21T11:39:58;12.90;99.90
15819;DHT22;8010;53.986;12.106;2024-02-21T11:42:27;13.20;99.90
15819;DHT22;8010;53.986;12.106;2024-02-21T11:44:54;13.30;99.90
15819;DHT22;8010;53.986;12.106;2024-02-21T11:47:22;13.40;99.90
15819;DHT22;8010;53.986;12.106;2024-02-21T11:49:48;13.60;99.90
15819;DHT22;8010;53.986;12.106;2024-02-21T11:52:16;13.80;99.90
15819;DHT22;8010;53.986;12.106;2024-02-21T11:54:44;13.80;99.90
15819;DHT22;8010;53.986;12.106;2024-02-21T11:57:10;13.80;99.90
15819;DHT22;8010;53.986;12.106;2024-02-21T11:59:40;13.80;99.90
15819;DHT22;8010;53.986;12.106;2024-02-21T12:02:06;13.70;99.90
15819;DHT22;8010;53.986;12.106;2024-02-21T12:04:32;13.60;99.90
15819;DHT22;8010;53.986;12.106;2024-02-21T12:06:58;13.50;99.90
15819;DHT22;8010;53.986;12.106;2024-02-21T12:09:25;13.30;99.90
15819;DHT22;8010;53.986;12.106;2024-02-21T12:12:01;13.30;99.90
15819;DHT22;8010;53.986;12.106;2024-02-21T12:14:28;13.30;99.90
15819;DHT22;8010;53.986;12.106;2024-02-21T12:16:54;13.30;99.90
15819;DHT22;8010;53.986;12.106;2024-02-21T12:19:20;13.20;99.90
15819;DHT22;8010;53.986;12.106;2024-02-21T12:21:48;13.10;99.90
15819;DHT22;8010;53.986;12.106;2024-02-21T12:24:16;13.10;99.90
15819;DHT22;8010;53.986;12.106;2024-02-21T12:26:42;13.10;99.90
15819;DHT22;8010;53.986;12.106;2024-02-21T12:29:08;13.10;99.90
15819;DHT22;8010;53.986;12.106;2024-02-21T12:31:38;13.10;99.90
15819;DHT22;8010;53.986;12.106;2024-02-21T12:34:04;13.10;99.90
15819;DHT22;8010;53.986;12.106;2024-02-21T12:36:30;13.10;99.90
15819;DHT22;8010;53.986;12.106;2024-02-21T12:38:56;12.90;99.90
15819;DHT22;8010;53.986;12.106;2024-02-21T12:41:21;12.60;99.90
15819;DHT22;8010;53.986;12.106;2024-02-21T12:43:47;12.40;99.90
15819;DHT22;8010;53.986;12.106;2024-02-21T12:46:12;12.30;99.90
15819;DHT22;8010;53.986;12.106;2024-02-21T12:48:38;12.10;99.90
15819;DHT22;8010;53.986;12.106;2024-02-21T12:51:05;12.00;99.90
15819;DHT22;8010;53.986;12.106;2024-02-21T12:53:30;11.90;99.90
15819;DHT22;8010;53.986;12.106;2024-02-21T12:55:56;11.90;99.90
15819;DHT22;8010;53.986;12.106;2024-02-21T12:58:22;11.90;99.90
15819;DHT22;8010;53.986;12.106;2024-02-21T13:00:47;11.90;99.90
15819;DHT22;8010;53.986;12.106;2024-02-21T13:03:14;12.00;99.90
15819;DHT22;8010;53.986;12.106;2024-02-21T13:05:39;12.10;99.90
15819;DHT22;8010;53.986;12.106;2024-02-21T13:08:11;12.10;99.90
15819;DHT22;8010;53.986;12.106;2024-02-21T13:10:37;11.90;99.90
15819;DHT22;8010;53.986;12.106;2024-02-21T13:13:03;11.80;99.90
15819;DHT22;8010;53.986;12.106;2024-02-21T13:15:29;11.90;99.90
15819;DHT22;8010;53.986;12.106;2024-02-21T13:17:56;11.80;99.90
15819;DHT22;8010;53.986;12.106;2024-02-21T13:20:22;11.80;99.90
15819;DHT22;8010;53.986;12.106;2024-02-21T13:22:48;11.70;99.90
15819;DHT22;8010;53.986;12.106;2024-02-21T13:25:13;11.60;99.90
15819;DHT22;8010;53.986;12.106;2024-02-21T13:27:43;11.80;99.90
15819;DHT22;8010;53.986;12.106;2024-02-21T13:30:09;12.00;99.90
15819;DHT22;8010;53.986;12.106;2024-02-21T13:32:35;12.10;99.90
15819;DHT22;8010;53.986;12.106;2024-02-21T13:35:01;12.10;99.90
15819;DHT22;8010;53.986;12.106;2024-02-21T13:37:27;12.00;99.90
15819;DHT22;8010;53.986;12.106;2024-02-21T13:39:53;11.80;99.90
15819;DHT22;8010;53.986;12.106;2024-02-21T13:42:19;11.70;99.90
15819;DHT22;8010;53.986;12.106;2024-02-21T13:44:45;11.70;99.90
15819;DHT22;8010;53.986;12.106;2024-02-21T13:47:13;11.70;99.90
15819;DHT22;8010;53.986;12.106;2024-02-21T13:49:39;11.70;99.90
15819;DHT22;8010;53.986;12.106;2024-02-21T13:52:05;11.60;99.90
15819;DHT22;8010;53.986;12.106;2024-02-21T13:54:30;11.50;99.90
15819;DHT22;8010;53.986;12.106;2024-02-21T13:56:56;11.50;99.90
15819;DHT22;8010;53.986;12.106;2024-02-21T13:59:21;11.40;99.90
15819;DHT22;8010;53.986;12.106;2024-02-21T14:01:47;11.30;99.90
15819;DHT22;8010;53.986;12.106;2024-02-21T14:04:12;11.20;99.90
15819;DHT22;8010;53.986;12.106;2024-02-21T14:06:38;11.10;99.90
15819;DHT22;8010;53.986;12.106;2024-02-21T14:09:09;11.10;99.90
15819;DHT22;8010;53.986;12.106;2024-02-21T14:11:34;11.10;99.90
15819;DHT22;8010;53.986;12.106;2024-02-21T14:14:00;11.00;99.90
15819;DHT22;8010;53.986;12.106;2024-02-21T14:16:26;11.00;99.90
15819;DHT22;8010;53.986;12.106;2024-02-21T14:18:51;10.90;99.90
15819;DHT22;8010;53.986;12.106;2024-02-21T14:21:16;10.80;99.90
15819;DHT22;8010;53.986;12.106;2024-02-21T14:23:42;10.70;99.90
15819;DHT22;8010;53.986;12.106;2024-02-21T14:26:08;10.60;99.90
15819;DHT22;8010;53.986;12.106;2024-02-21T14:28:34;10.60;99.90
15819;DHT22;8010;53.986;12.106;2024-02-21T14:31:00;10.50;99.90
15819;DHT22;8010;53.986;12.106;2024-02-21T14:33:28;10.50;99.90
15819;DHT22;8010;53.986;12.106;2024-02-21T14:35:55;10.50;99.90
15819;DHT22;8010;53.986;12.106;2024-02-21T14:38:20;10.50;99.90
15819;DHT22;8010;53.986;12.106;2024-02-21T14:40:46;10.50;99.90
15819;DHT22;8010;53.986;12.106;2024-02-21T14:43:11;10.50;99.90
15819;DHT22;8010;53.986;12.106;2024-02-21T14:45:37;10.50;99.90
15819;DHT22;8010;53.986;12.106;2024-02-21T14:48:06;10.40;99.90
15819;DHT22;8010;53.986;12.106;2024-02-21T14:50:32;10.40;99.90
15819;DHT22;8010;53.986;12.106;2024-02-21T14:52:57;10.30;99.90
15819;DHT22;8010;53.986;12.106;2024-02-21T14:55:23;10.30;99.90
15819;DHT22;8010;53.986;12.106;2024-02-21T14:57:49;10.20;99.90
15819;DHT22;8010;53.986;12.106;2024-02-21T15:00:15;10.20;99.90
15819;DHT22;8010;53.986;12.106;2024-02-21T15:02:40;10.20;99.90
15819;DHT22;8010;53.986;12.106;2024-02-21T15:05:06;10.20;99.90
15819;DHT22;8010;53.986;12.106;2024-02-21T15:07:32;10.10;99.90
15819;DHT22;8010;53.986;12.106;2024-02-21T15:09:58;10.00;99.90
15819;DHT22;8010;53.986;12.106;2024-02-21T15:12:24;10.00;99.90
15819;DHT22;8010;53.986;12.106;2024-02-21T15:14:50;10.00;99.90
15819;DHT22;8010;53.986;12.106;2024-02-21T15:17:17;9.90;99.90
15819;DHT22;8010;53.986;12.106;2024-02-21T15:19:43;9.90;99.90
15819;DHT22;8010;53.986;12.106;2024-02-21T15:22:10;9.90;99.90
15819;DHT22;8010;53.986;12.106;2024-02-21T15:24:37;9.90;99.90
15819;DHT22;8010;53.986;12.106;2024-02-21T15:27:03;9.90;99.90
15819;DHT22;8010;53.986;12.106;2024-02-21T15:29:29;9.90;99.90
15819;DHT22;8010;53.986;12.106;2024-02-21T15:31:54;9.90;99.90
15819;DHT22;8010;53.986;12.106;2024-02-21T15:34:21;9.90;99.90
15819;DHT22;8010;53.986;12.106;2024-02-21T15:36:46;9.90;99.90
15819;DHT22;8010;53.986;12.106;2024-02-21T15:39:12;9.90;99.90